Flight Track Log - Related Links

Times and Time Zones

All times are in EDT time to prevent confusion due to time zone crossing. See the SKW4542 flight status page for this flight to view local times or setup timezone preferences in your user account.

Time Position Orientation Groundspeed Altitude Reporting Facility
EDT Latitude Longitude Course Direction KTS MPH feet Rate Location/Type
Sun 07:20:09 PM 40.8033 -111.9633 13° North 160 184 5,000  Level Salt Lake Center
Sun 07:20:44 PM 40.8342 -111.9661 356° North 167 192 6,000 2,041 Climbing Salt Lake Center
Sun 07:21:46 PM 40.8964 -111.9742 354° North 221 254 8,300 2,293 Climbing Salt Lake Center
Sun 07:22:47 PM 40.9656 -111.9808 356° North 248 285 10,700 2,439 Climbing Salt Lake Center
Sun 07:23:00 PM 41.2102 -111.8231 37° Northeast  Level FlightAware Approximate
Sun 07:23:49 PM 41.0356 -111.9356 26° Northeast 273 314 13,300  Level Salt Lake Center
Sun 07:24:00 PM 41.3157 -111.7510 37° Northeast  Level FlightAware Approximate
Sun 07:24:50 PM 41.1092 -111.8883 26° Northeast 286 329 15,700  Level Salt Lake Center
Sun 07:25:00 PM 41.4232 -111.6831 13° North  Level FlightAware Approximate
Sun 07:25:52 PM 41.1833 -111.8408 26° Northeast 292 336 17,800  Level Salt Lake Center
Sun 07:26:53 PM 41.2586 -111.7931 26° Northeast 304 350 19,500 1,659 Climbing Salt Lake Center
Sun 07:27:55 PM 41.3364 -111.7428 26° Northeast 312 359 21,200 1,463 Climbing Salt Lake Center
Sun 07:28:56 PM 41.4175 -111.6978 23° Northeast 313 360 22,500 1,268 Climbing Salt Lake Center
Sun 07:29:58 PM 41.5047 -111.6644 16° North 326 375 23,800 1,355 Climbing Salt Lake Center
Sun 07:31:00 PM 41.5933 -111.6289 17° North 333 383 25,300 1,073 Climbing Salt Lake Center
Sun 07:32:01 PM 41.6836 -111.5919 17° North 340 391 26,000 341 Climbing Salt Lake Center
Sun 07:33:03 PM 41.7903 -111.5494 17° North 333 383 26,000  Level Salt Lake Center
Sun 07:34:04 PM 41.8783 -111.5281 10° North 324 373 26,000  Level Salt Lake Center
Sun 07:35:06 PM 41.9683 -111.5092 North 326 375 26,000  Level Salt Lake Center
Sun 07:36:08 PM 42.0586 -111.4889 North 329 379 26,000  Level Salt Lake Center
Sun 07:37:09 PM 42.1458 -111.4675 10° North 321 369 26,000  Level Salt Lake Center
Sun 07:38:11 PM 42.2333 -111.4478 North 321 369 26,000  Level Salt Lake Center
Sun 07:39:12 PM 42.3222 -111.4400 North 321 369 26,000  Level Salt Lake Center
Sun 07:40:14 PM 42.4161 -111.4906 338° Northwest 302 348 26,000  Level Salt Lake Center
Sun 07:41:16 PM 42.4928 -111.5308 339° North 298 343 26,000  Level Salt Lake Center
Sun 07:42:17 PM 42.5658 -111.5683 339° North 284 327 26,000  Level Salt Lake Center
Sun 07:43:19 PM 42.6367 -111.6058 339° North 275 316 26,000 -878 Level Salt Lake Center
Sun 07:44:20 PM 42.7136 -111.6442 340° North 268 308 24,200 -1,659 Descending Salt Lake Center
Sun 07:45:22 PM 42.7828 -111.6808 339° North 276 318 22,600 -1,500 Descending Salt Lake Center
Sun 07:46:24 PM 42.8542 -111.7197 338° Northwest 287 330 21,100 -1,659 Descending Salt Lake Center
Sun 07:47:25 PM 42.9417 -111.7656 339° North 298 343 19,200 -1,756 Descending Salt Lake Center
Sun 07:48:27 PM 43.0144 -111.8058 338° Northwest 295 339 17,500 -2,000 Descending Salt Lake Center
Sun 07:49:28 PM 43.0947 -111.8450 340° North 278 320 15,100 -2,000 Descending Salt Lake Center
Sun 07:50:30 PM 43.1617 -111.8808 339° North 271 312 13,400 -1,512 Descending Salt Lake Center
Sun 07:51:31 PM 43.2275 -111.9144 340° North 267 307 12,000 -1,512 Descending Salt Lake Center
Sun 07:52:33 PM 43.3042 -111.9583 337° Northwest 266 306 10,300 -1,548 Descending Salt Lake Center
Sun 07:53:35 PM 43.3758 -111.9608 359° North 268 308 8,800 -1,561 Descending Salt Lake Center
Sun 07:54:36 PM 43.4553 -111.9692 356° North 262 302 7,100 -1,230 Descending Salt Lake Center
Sun 07:55:37 PM 43.5219 -111.9731 358° North 257 296 6,300 -390 Descending Salt Lake Center
Sun 07:56:39 PM 43.5814 -111.9767 357° North 227 261 6,300  Level Salt Lake Center

Login

Don't have an account? Register now (free) for customized features, flight alerts, and more!